sensor_id;sensor_type;location;lat;lon;timestamp;temperature;humidity
24402;DHT22;12539;48.808;11.292;2023-04-03T00:01:54;6.50;99.90
24402;DHT22;12539;48.808;11.292;2023-04-03T00:04:19;6.60;99.90
24402;DHT22;12539;48.808;11.292;2023-04-03T00:06:45;6.60;99.90
24402;DHT22;12539;48.808;11.292;2023-04-03T00:09:10;6.60;99.90
24402;DHT22;12539;48.808;11.292;2023-04-03T00:11:36;6.60;99.90
24402;DHT22;12539;48.808;11.292;2023-04-03T00:14:01;6.60;99.90
24402;DHT22;12539;48.808;11.292;2023-04-03T00:16:27;6.50;99.90
24402;DHT22;12539;48.808;11.292;2023-04-03T00:18:53;6.50;99.90
24402;DHT22;12539;48.808;11.292;2023-04-03T00:21:18;6.50;99.40
24402;DHT22;12539;48.808;11.292;2023-04-03T00:23:44;6.40;99.90
24402;DHT22;12539;48.808;11.292;2023-04-03T00:26:09;6.40;99.90
24402;DHT22;12539;48.808;11.292;2023-04-03T00:28:35;6.40;99.90
24402;DHT22;12539;48.808;11.292;2023-04-03T00:31:01;6.40;99.90
24402;DHT22;12539;48.808;11.292;2023-04-03T00:33:26;6.40;99.90
24402;DHT22;12539;48.808;11.292;2023-04-03T00:35:52;6.40;99.90
24402;DHT22;12539;48.808;11.292;2023-04-03T00:38:17;6.40;99.90
24402;DHT22;12539;48.808;11.292;2023-04-03T00:40:44;6.30;99.90
24402;DHT22;12539;48.808;11.292;2023-04-03T00:43:18;6.20;99.10
24402;DHT22;12539;48.808;11.292;2023-04-03T00:45:51;6.20;99.90
24402;DHT22;12539;48.808;11.292;2023-04-03T00:48:21;6.20;99.90
24402;DHT22;12539;48.808;11.292;2023-04-03T00:50:48;6.20;99.90
24402;DHT22;12539;48.808;11.292;2023-04-03T00:53:24;6.30;99.90
24402;DHT22;12539;48.808;11.292;2023-04-03T00:55:50;6.20;99.90
24402;DHT22;12539;48.808;11.292;2023-04-03T00:58:17;6.20;99.90
24402;DHT22;12539;48.808;11.292;2023-04-03T01:00:45;6.20;99.90
24402;DHT22;12539;48.808;11.292;2023-04-03T01:03:11;6.20;99.90
24402;DHT22;12539;48.808;11.292;2023-04-03T01:05:37;6.20;99.10
24402;DHT22;12539;48.808;11.292;2023-04-03T01:08:03;6.20;99.90
24402;DHT22;12539;48.808;11.292;2023-04-03T01:10:28;6.10;99.90
24402;DHT22;12539;48.808;11.292;2023-04-03T01:12:54;6.00;99.00
24402;DHT22;12539;48.808;11.292;2023-04-03T01:15:24;6.00;99.10
24402;DHT22;12539;48.808;11.292;2023-04-03T01:17:51;5.90;99.30
24402;DHT22;12539;48.808;11.292;2023-04-03T01:25:15;5.90;99.30
24402;DHT22;12539;48.808;11.292;2023-04-03T01:27:41;5.80;99.60
24402;DHT22;12539;48.808;11.292;2023-04-03T01:30:06;5.80;99.60
24402;DHT22;12539;48.808;11.292;2023-04-03T01:32:32;5.90;99.90
24402;DHT22;12539;48.808;11.292;2023-04-03T01:34:58;5.80;99.90
24402;DHT22;12539;48.808;11.292;2023-04-03T01:37:23;5.90;99.80
24402;DHT22;12539;48.808;11.292;2023-04-03T01:39:49;5.90;99.80
24402;DHT22;12539;48.808;11.292;2023-04-03T01:42:15;5.80;98.50
24402;DHT22;12539;48.808;11.292;2023-04-03T01:44:41;5.80;99.20
24402;DHT22;12539;48.808;11.292;2023-04-03T01:47:06;5.80;99.90
24402;DHT22;12539;48.808;11.292;2023-04-03T01:49:32;5.90;99.90
24402;DHT22;12539;48.808;11.292;2023-04-03T01:51:58;5.90;99.90
24402;DHT22;12539;48.808;11.292;2023-04-03T01:54:23;5.90;99.90
24402;DHT22;12539;48.808;11.292;2023-04-03T01:56:49;5.90;99.90
24402;DHT22;12539;48.808;11.292;2023-04-03T01:59:14;5.90;99.90
24402;DHT22;12539;48.808;11.292;2023-04-03T02:01:42;5.90;99.70
24402;DHT22;12539;48.808;11.292;2023-04-03T02:04:10;5.90;98.80
24402;DHT22;12539;48.808;11.292;2023-04-03T02:06:36;5.80;99.30
24402;DHT22;12539;48.808;11.292;2023-04-03T02:09:02;5.80;99.90
24402;DHT22;12539;48.808;11.292;2023-04-03T02:11:27;5.90;99.90
24402;DHT22;12539;48.808;11.292;2023-04-03T02:13:53;5.90;99.90
24402;DHT22;12539;48.808;11.292;2023-04-03T02:16:18;5.90;99.60
24402;DHT22;12539;48.808;11.292;2023-04-03T02:18:44;5.80;99.10
24402;DHT22;12539;48.808;11.292;2023-04-03T02:21:09;5.90;99.80
24402;DHT22;12539;48.808;11.292;2023-04-03T02:23:35;5.80;99.40
24402;DHT22;12539;48.808;11.292;2023-04-03T02:26:03;5.80;99.20
24402;DHT22;12539;48.808;11.292;2023-04-03T02:28:28;5.80;98.90
24402;DHT22;12539;48.808;11.292;2023-04-03T02:30:54;5.80;99.40
24402;DHT22;12539;48.808;11.292;2023-04-03T02:33:20;5.70;99.00
24402;DHT22;12539;48.808;11.292;2023-04-03T02:35:45;5.80;99.50
24402;DHT22;12539;48.808;11.292;2023-04-03T02:38:18;5.80;99.60
24402;DHT22;12539;48.808;11.292;2023-04-03T02:40:46;5.80;99.40
24402;DHT22;12539;48.808;11.292;2023-04-03T02:43:11;5.70;99.20
24402;DHT22;12539;48.808;11.292;2023-04-03T02:45:37;5.70;99.20
24402;DHT22;12539;48.808;11.292;2023-04-03T02:48:02;5.70;99.30
24402;DHT22;12539;48.808;11.292;2023-04-03T02:50:28;5.70;99.40
24402;DHT22;12539;48.808;11.292;2023-04-03T02:58:22;5.60;98.40
24402;DHT22;12539;48.808;11.292;2023-04-03T03:00:47;5.50;98.90
24402;DHT22;12539;48.808;11.292;2023-04-03T03:03:13;5.50;98.90
24402;DHT22;12539;48.808;11.292;2023-04-03T03:05:39;5.50;99.20
24402;DHT22;12539;48.808;11.292;2023-04-03T03:08:05;5.50;99.60
24402;DHT22;12539;48.808;11.292;2023-04-03T03:10:30;5.50;99.20
24402;DHT22;12539;48.808;11.292;2023-04-03T03:12:56;5.50;99.60
24402;DHT22;12539;48.808;11.292;2023-04-03T03:15:21;5.50;99.60
24402;DHT22;12539;48.808;11.292;2023-04-03T03:17:47;5.50;99.40
24402;DHT22;12539;48.808;11.292;2023-04-03T03:20:13;5.50;99.70
24402;DHT22;12539;48.808;11.292;2023-04-03T03:22:41;5.60;99.90
24402;DHT22;12539;48.808;11.292;2023-04-03T03:25:06;5.60;99.90
24402;DHT22;12539;48.808;11.292;2023-04-03T03:27:32;5.60;99.60
24402;DHT22;12539;48.808;11.292;2023-04-03T03:29:58;5.60;99.80
24402;DHT22;12539;48.808;11.292;2023-04-03T03:32:23;5.50;98.50
24402;DHT22;12539;48.808;11.292;2023-04-03T03:34:49;5.40;98.80
24402;DHT22;12539;48.808;11.292;2023-04-03T03:37:15;5.30;98.80
24402;DHT22;12539;48.808;11.292;2023-04-03T03:39:40;5.30;98.90
24402;DHT22;12539;48.808;11.292;2023-04-03T03:42:06;5.30;99.30
24402;DHT22;12539;48.808;11.292;2023-04-03T03:44:31;5.30;99.50
24402;DHT22;12539;48.808;11.292;2023-04-03T03:46:57;5.30;99.30
24402;DHT22;12539;48.808;11.292;2023-04-03T03:49:22;5.30;99.40
24402;DHT22;12539;48.808;11.292;2023-04-03T03:51:48;5.20;99.30
24402;DHT22;12539;48.808;11.292;2023-04-03T03:54:13;5.20;99.90
24402;DHT22;12539;48.808;11.292;2023-04-03T03:56:39;5.20;99.90
24402;DHT22;12539;48.808;11.292;2023-04-03T03:59:05;5.20;99.90
24402;DHT22;12539;48.808;11.292;2023-04-03T04:01:31;5.20;99.80
24402;DHT22;12539;48.808;11.292;2023-04-03T04:03:56;5.10;99.90
24402;DHT22;12539;48.808;11.292;2023-04-03T04:06:22;5.10;99.90
24402;DHT22;12539;48.808;11.292;2023-04-03T04:08:47;5.10;99.90
24402;DHT22;12539;48.808;11.292;2023-04-03T04:11:13;5.00;99.90
24402;DHT22;12539;48.808;11.292;2023-04-03T04:13:39;5.00;99.90
24402;DHT22;12539;48.808;11.292;2023-04-03T04:16:04;5.10;99.90
24402;DHT22;12539;48.808;11.292;2023-04-03T04:18:30;5.00;99.90
24402;DHT22;12539;48.808;11.292;2023-04-03T04:20:56;5.10;99.90
24402;DHT22;12539;48.808;11.292;2023-04-03T04:23:21;5.00;99.90
24402;DHT22;12539;48.808;11.292;2023-04-03T04:25:47;5.10;99.90
24402;DHT22;12539;48.808;11.292;2023-04-03T04:28:13;5.10;99.90
24402;DHT22;12539;48.808;11.292;2023-04-03T04:30:39;5.10;99.90
24402;DHT22;12539;48.808;11.292;2023-04-03T04:33:05;5.10;99.90
24402;DHT22;12539;48.808;11.292;2023-04-03T04:35:30;5.10;99.90
24402;DHT22;12539;48.808;11.292;2023-04-03T04:37:56;5.10;99.90
24402;DHT22;12539;48.808;11.292;2023-04-03T04:40:21;5.10;99.90
24402;DHT22;12539;48.808;11.292;2023-04-03T04:42:47;5.20;99.90
24402;DHT22;12539;48.808;11.292;2023-04-03T04:45:13;5.20;99.90
24402;DHT22;12539;48.808;11.292;2023-04-03T04:47:38;5.20;99.90
24402;DHT22;12539;48.808;11.292;2023-04-03T04:50:04;5.20;99.90
24402;DHT22;12539;48.808;11.292;2023-04-03T04:52:30;5.20;99.90
24402;DHT22;12539;48.808;11.292;2023-04-03T04:54:55;5.20;99.90
24402;DHT22;12539;48.808;11.292;2023-04-03T04:57:21;5.10;99.90
24402;DHT22;12539;48.808;11.292;2023-04-03T04:59:49;5.10;99.90
24402;DHT22;12539;48.808;11.292;2023-04-03T05:02:15;5.20;99.90
24402;DHT22;12539;48.808;11.292;2023-04-03T05:04:40;5.20;99.90
24402;DHT22;12539;48.808;11.292;2023-04-03T05:07:06;5.20;99.90
24402;DHT22;12539;48.808;11.292;2023-04-03T05:09:31;5.30;99.90
24402;DHT22;12539;48.808;11.292;2023-04-03T05:11:57;5.30;99.90
24402;DHT22;12539;48.808;11.292;2023-04-03T05:14:23;5.30;99.90
24402;DHT22;12539;48.808;11.292;2023-04-03T05:16:48;5.30;99.90
24402;DHT22;12539;48.808;11.292;2023-04-03T05:19:18;5.30;99.90
24402;DHT22;12539;48.808;11.292;2023-04-03T05:21:43;5.40;99.90
24402;DHT22;12539;48.808;11.292;2023-04-03T05:24:09;5.40;99.90
24402;DHT22;12539;48.808;11.292;2023-04-03T05:26:34;5.40;99.90
24402;DHT22;12539;48.808;11.292;2023-04-03T05:29:00;5.40;99.90
24402;DHT22;12539;48.808;11.292;2023-04-03T05:31:26;5.40;99.90
24402;DHT22;12539;48.808;11.292;2023-04-03T05:33:54;5.40;99.90
24402;DHT22;12539;48.808;11.292;2023-04-03T05:36:20;5.40;99.90
24402;DHT22;12539;48.808;11.292;2023-04-03T05:38:46;5.50;99.90
24402;DHT22;12539;48.808;11.292;2023-04-03T05:41:12;5.40;99.90
24402;DHT22;12539;48.808;11.292;2023-04-03T05:43:37;5.40;99.90
24402;DHT22;12539;48.808;11.292;2023-04-03T05:46:06;5.40;99.90
24402;DHT22;12539;48.808;11.292;2023-04-03T05:48:33;5.50;99.90
24402;DHT22;12539;48.808;11.292;2023-04-03T05:50:59;5.60;99.90
24402;DHT22;12539;48.808;11.292;2023-04-03T05:53:27;5.60;99.90
24402;DHT22;12539;48.808;11.292;2023-04-03T05:55:54;5.60;99.90
24402;DHT22;12539;48.808;11.292;2023-04-03T05:58:19;5.60;99.90
24402;DHT22;12539;48.808;11.292;2023-04-03T06:00:45;5.70;99.90
24402;DHT22;12539;48.808;11.292;2023-04-03T06:03:11;5.70;99.90
24402;DHT22;12539;48.808;11.292;2023-04-03T06:05:36;5.70;99.50
24402;DHT22;12539;48.808;11.292;2023-04-03T06:08:02;5.60;99.90
24402;DHT22;12539;48.808;11.292;2023-04-03T06:10:28;5.60;99.90
24402;DHT22;12539;48.808;11.292;2023-04-03T06:12:54;5.70;99.90
24402;DHT22;12539;48.808;11.292;2023-04-03T06:15:20;5.70;99.90
24402;DHT22;12539;48.808;11.292;2023-04-03T06:17:46;5.80;99.90
24402;DHT22;12539;48.808;11.292;2023-04-03T06:20:11;5.80;99.90
24402;DHT22;12539;48.808;11.292;2023-04-03T06:22:37;5.80;99.90
24402;DHT22;12539;48.808;11.292;2023-04-03T06:25:03;5.90;99.90
24402;DHT22;12539;48.808;11.292;2023-04-03T06:27:29;5.90;99.90
24402;DHT22;12539;48.808;11.292;2023-04-03T06:29:54;6.00;99.90
24402;DHT22;12539;48.808;11.292;2023-04-03T06:32:20;6.10;99.70
24402;DHT22;12539;48.808;11.292;2023-04-03T06:34:46;6.10;98.60
24402;DHT22;12539;48.808;11.292;2023-04-03T06:37:19;6.10;98.00
24402;DHT22;12539;48.808;11.292;2023-04-03T06:39:44;6.20;98.60
24402;DHT22;12539;48.808;11.292;2023-04-03T06:42:10;6.20;97.80
24402;DHT22;12539;48.808;11.292;2023-04-03T06:44:36;6.20;97.90
24402;DHT22;12539;48.808;11.292;2023-04-03T06:47:02;6.20;97.70
24402;DHT22;12539;48.808;11.292;2023-04-03T06:49:27;6.30;97.50
24402;DHT22;12539;48.808;11.292;2023-04-03T06:51:54;6.30;96.50
24402;DHT22;12539;48.808;11.292;2023-04-03T06:54:19;6.30;97.60
24402;DHT22;12539;48.808;11.292;2023-04-03T06:56:45;6.40;98.50
24402;DHT22;12539;48.808;11.292;2023-04-03T06:59:11;6.50;96.90
24402;DHT22;12539;48.808;11.292;2023-04-03T07:01:38;6.50;97.40
24402;DHT22;12539;48.808;11.292;2023-04-03T07:04:04;6.60;97.30
24402;DHT22;12539;48.808;11.292;2023-04-03T07:06:30;6.70;96.80
24402;DHT22;12539;48.808;11.292;2023-04-03T07:11:23;6.80;97.60
24402;DHT22;12539;48.808;11.292;2023-04-03T07:13:48;6.80;96.00
24402;DHT22;12539;48.808;11.292;2023-04-03T07:16:14;6.80;95.60
24402;DHT22;12539;48.808;11.292;2023-04-03T07:18:39;6.80;96.20
24402;DHT22;12539;48.808;11.292;2023-04-03T07:21:05;6.90;96.20
24402;DHT22;12539;48.808;11.292;2023-04-03T07:23:31;6.90;95.40
24402;DHT22;12539;48.808;11.292;2023-04-03T07:25:56;7.00;96.50
24402;DHT22;12539;48.808;11.292;2023-04-03T07:28:22;7.10;95.40
24402;DHT22;12539;48.808;11.292;2023-04-03T07:30:49;7.20;96.50
24402;DHT22;12539;48.808;11.292;2023-04-03T07:33:15;7.30;94.20
24402;DHT22;12539;48.808;11.292;2023-04-03T07:35:41;7.20;94.30
24402;DHT22;12539;48.808;11.292;2023-04-03T07:38:07;7.20;94.70
24402;DHT22;12539;48.808;11.292;2023-04-03T07:40:33;7.20;94.90
24402;DHT22;12539;48.808;11.292;2023-04-03T07:42:59;7.30;94.30
24402;DHT22;12539;48.808;11.292;2023-04-03T07:45:25;7.30;93.90
24402;DHT22;12539;48.808;11.292;2023-04-03T07:47:50;7.40;94.30
24402;DHT22;12539;48.808;11.292;2023-04-03T07:50:17;7.50;94.20
24402;DHT22;12539;48.808;11.292;2023-04-03T07:52:42;7.60;93.50
24402;DHT22;12539;48.808;11.292;2023-04-03T07:55:08;7.60;92.90
24402;DHT22;12539;48.808;11.292;2023-04-03T07:57:34;7.60;92.60
24402;DHT22;12539;48.808;11.292;2023-04-03T07:59:59;7.60;92.00
24402;DHT22;12539;48.808;11.292;2023-04-03T08:02:24;7.60;92.40
24402;DHT22;12539;48.808;11.292;2023-04-03T08:04:50;7.70;92.60
24402;DHT22;12539;48.808;11.292;2023-04-03T08:07:16;7.80;92.20
24402;DHT22;12539;48.808;11.292;2023-04-03T08:09:41;7.90;92.50
24402;DHT22;12539;48.808;11.292;2023-04-03T08:12:07;8.00;92.40
24402;DHT22;12539;48.808;11.292;2023-04-03T08:14:32;8.00;91.10
24402;DHT22;12539;48.808;11.292;2023-04-03T08:17:00;8.10;91.20
24402;DHT22;12539;48.808;11.292;2023-04-03T08:19:26;8.30;91.10
24402;DHT22;12539;48.808;11.292;2023-04-03T08:21:52;8.30;90.10
24402;DHT22;12539;48.808;11.292;2023-04-03T08:24:17;8.40;91.00
24402;DHT22;12539;48.808;11.292;2023-04-03T08:26:43;8.60;90.20
24402;DHT22;12539;48.808;11.292;2023-04-03T08:29:08;8.70;89.60
24402;DHT22;12539;48.808;11.292;2023-04-03T08:31:34;8.80;90.50
24402;DHT22;12539;48.808;11.292;2023-04-03T08:34:00;9.00;90.30
24402;DHT22;12539;48.808;11.292;2023-04-03T08:36:26;9.10;89.40
24402;DHT22;12539;48.808;11.292;2023-04-03T08:38:52;9.10;88.50
24402;DHT22;12539;48.808;11.292;2023-04-03T08:43:52;9.40;89.30
24402;DHT22;12539;48.808;11.292;2023-04-03T08:46:19;9.60;88.70
24402;DHT22;12539;48.808;11.292;2023-04-03T08:48:47;9.60;87.20
24402;DHT22;12539;48.808;11.292;2023-04-03T08:51:15;9.70;86.00
24402;DHT22;12539;48.808;11.292;2023-04-03T08:53:43;9.60;85.80
24402;DHT22;12539;48.808;11.292;2023-04-03T08:56:12;9.60;85.30
24402;DHT22;12539;48.808;11.292;2023-04-03T08:58:49;9.60;84.30
24402;DHT22;12539;48.808;11.292;2023-04-03T09:01:21;9.60;84.50
24402;DHT22;12539;48.808;11.292;2023-04-03T09:03:48;9.60;85.40
24402;DHT22;12539;48.808;11.292;2023-04-03T09:06:16;9.70;85.60
24402;DHT22;12539;48.808;11.292;2023-04-03T09:08:50;9.70;83.30
24402;DHT22;12539;48.808;11.292;2023-04-03T09:21:56;9.80;80.70
24402;DHT22;12539;48.808;11.292;2023-04-03T09:24:21;9.70;76.70
24402;DHT22;12539;48.808;11.292;2023-04-03T09:26:53;9.60;77.70
24402;DHT22;12539;48.808;11.292;2023-04-03T09:29:21;9.60;78.20
24402;DHT22;12539;48.808;11.292;2023-04-03T09:31:49;9.50;80.20
24402;DHT22;12539;48.808;11.292;2023-04-03T09:34:18;9.60;80.10
24402;DHT22;12539;48.808;11.292;2023-04-03T09:39:21;9.50;79.60
24402;DHT22;12539;48.808;11.292;2023-04-03T09:42:11;9.60;78.90
24402;DHT22;12539;48.808;11.292;2023-04-03T09:44:40;9.50;75.10
24402;DHT22;12539;48.808;11.292;2023-04-03T09:47:17;9.50;76.70
24402;DHT22;12539;48.808;11.292;2023-04-03T09:49:43;9.60;74.80
24402;DHT22;12539;48.808;11.292;2023-04-03T09:52:18;9.60;76.70
24402;DHT22;12539;48.808;11.292;2023-04-03T09:54:44;9.70;78.50
24402;DHT22;12539;48.808;11.292;2023-04-03T09:57:10;9.80;78.30
24402;DHT22;12539;48.808;11.292;2023-04-03T09:59:44;10.00;78.90
24402;DHT22;12539;48.808;11.292;2023-04-03T10:04:37;10.10;76.70
24402;DHT22;12539;48.808;11.292;2023-04-03T10:07:03;10.00;75.10
24402;DHT22;12539;48.808;11.292;2023-04-03T10:09:29;10.00;72.00
24402;DHT22;12539;48.808;11.292;2023-04-03T10:14:24;9.70;71.00
24402;DHT22;12539;48.808;11.292;2023-04-03T10:19:41;9.60;73.50
24402;DHT22;12539;48.808;11.292;2023-04-03T10:24:56;9.80;72.20
24402;DHT22;12539;48.808;11.292;2023-04-03T10:27:58;9.90;72.50
24402;DHT22;12539;48.808;11.292;2023-04-03T10:46:18;10.70;69.20
24402;DHT22;12539;48.808;11.292;2023-04-03T10:48:56;10.70;69.10
24402;DHT22;12539;48.808;11.292;2023-04-03T10:51:27;10.80;70.60
24402;DHT22;12539;48.808;11.292;2023-04-03T10:56:48;11.10;68.70
24402;DHT22;12539;48.808;11.292;2023-04-03T10:59:18;11.20;69.70
24402;DHT22;12539;48.808;11.292;2023-04-03T11:01:48;11.10;67.40
24402;DHT22;12539;48.808;11.292;2023-04-03T11:04:15;11.10;68.70
24402;DHT22;12539;48.808;11.292;2023-04-03T11:09:43;11.20;64.50
24402;DHT22;12539;48.808;11.292;2023-04-03T11:12:26;11.10;64.60
24402;DHT22;12539;48.808;11.292;2023-04-03T11:14:54;11.10;64.40
24402;DHT22;12539;48.808;11.292;2023-04-03T11:22:35;11.00;61.90
24402;DHT22;12539;48.808;11.292;2023-04-03T11:27:40;11.00;61.20
24402;DHT22;12539;48.808;11.292;2023-04-03T11:30:08;10.90;61.60
24402;DHT22;12539;48.808;11.292;2023-04-03T11:32:44;10.70;62.20
24402;DHT22;12539;48.808;11.292;2023-04-03T11:35:14;10.70;64.30
24402;DHT22;12539;48.808;11.292;2023-04-03T11:37:41;10.60;60.90
24402;DHT22;12539;48.808;11.292;2023-04-03T11:43:04;10.30;62.50
24402;DHT22;12539;48.808;11.292;2023-04-03T11:45:34;10.10;61.30
24402;DHT22;12539;48.808;11.292;2023-04-03T12:05:58;9.30;67.40
24402;DHT22;12539;48.808;11.292;2023-04-03T12:08:52;9.20;65.20
24402;DHT22;12539;48.808;11.292;2023-04-03T12:11:29;9.20;65.50
24402;DHT22;12539;48.808;11.292;2023-04-03T12:24:23;9.90;65.40
24402;DHT22;12539;48.808;11.292;2023-04-03T12:40:01;9.40;63.60
24402;DHT22;12539;48.808;11.292;2023-04-03T12:45:10;9.10;65.30
24402;DHT22;12539;48.808;11.292;2023-04-03T12:47:38;9.10;64.70
24402;DHT22;12539;48.808;11.292;2023-04-03T12:50:18;9.20;66.90
24402;DHT22;12539;48.808;11.292;2023-04-03T12:52:54;9.30;66.90
24402;DHT22;12539;48.808;11.292;2023-04-03T12:55:21;9.30;67.70
24402;DHT22;12539;48.808;11.292;2023-04-03T12:57:47;9.20;64.50
24402;DHT22;12539;48.808;11.292;2023-04-03T13:02:48;9.00;62.40
24402;DHT22;12539;48.808;11.292;2023-04-03T13:05:15;9.00;63.70
24402;DHT22;12539;48.808;11.292;2023-04-03T13:07:41;9.20;67.90
24402;DHT22;12539;48.808;11.292;2023-04-03T13:12:34;9.50;66.50
24402;DHT22;12539;48.808;11.292;2023-04-03T13:15:02;9.60;62.60
24402;DHT22;12539;48.808;11.292;2023-04-03T13:17:30;9.50;62.30
24402;DHT22;12539;48.808;11.292;2023-04-03T13:20:11;9.50;60.90
24402;DHT22;12539;48.808;11.292;2023-04-03T13:22:38;9.50;60.20
24402;DHT22;12539;48.808;11.292;2023-04-03T13:25:09;9.40;58.90
24402;DHT22;12539;48.808;11.292;2023-04-03T13:27:35;9.20;58.80
24402;DHT22;12539;48.808;11.292;2023-04-03T13:30:01;9.00;60.30
24402;DHT22;12539;48.808;11.292;2023-04-03T13:32:28;8.80;60.50
24402;DHT22;12539;48.808;11.292;2023-04-03T13:34:54;8.60;60.60
24402;DHT22;12539;48.808;11.292;2023-04-03T13:42:35;8.50;62.10
24402;DHT22;12539;48.808;11.292;2023-04-03T13:47:44;8.60;59.70
24402;DHT22;12539;48.808;11.292;2023-04-03T13:50:23;8.60;60.20
24402;DHT22;12539;48.808;11.292;2023-04-03T13:52:55;8.70;61.10
24402;DHT22;12539;48.808;11.292;2023-04-03T13:55:26;8.90;60.80
24402;DHT22;12539;48.808;11.292;2023-04-03T13:58:35;9.00;60.80
24402;DHT22;12539;48.808;11.292;2023-04-03T14:00:49;9.10;61.80
24402;DHT22;12539;48.808;11.292;2023-04-03T14:03:33;9.10;61.20
24402;DHT22;12539;48.808;11.292;2023-04-03T14:06:00;9.00;59.20
24402;DHT22;12539;48.808;11.292;2023-04-03T14:08:26;8.90;61.00
24402;DHT22;12539;48.808;11.292;2023-04-03T14:10:52;8.80;62.80
24402;DHT22;12539;48.808;11.292;2023-04-03T14:13:18;8.70;61.90
24402;DHT22;12539;48.808;11.292;2023-04-03T14:15:45;8.70;63.90
24402;DHT22;12539;48.808;11.292;2023-04-03T14:18:17;8.60;64.10
24402;DHT22;12539;48.808;11.292;2023-04-03T14:20:43;8.60;64.90
24402;DHT22;12539;48.808;11.292;2023-04-03T14:23:09;8.70;63.70
24402;DHT22;12539;48.808;11.292;2023-04-03T14:25:36;8.60;61.60
24402;DHT22;12539;48.808;11.292;2023-04-03T14:28:01;8.50;60.40
24402;DHT22;12539;48.808;11.292;2023-04-03T14:30:37;8.40;61.20
24402;DHT22;12539;48.808;11.292;2023-04-03T14:33:03;8.40;60.00
24402;DHT22;12539;48.808;11.292;2023-04-03T14:35:29;8.30;61.90
24402;DHT22;12539;48.808;11.292;2023-04-03T14:37:55;8.40;62.80
24402;DHT22;12539;48.808;11.292;2023-04-03T14:40:23;8.40;58.20
24402;DHT22;12539;48.808;11.292;2023-04-03T14:42:49;8.40;59.40
24402;DHT22;12539;48.808;11.292;2023-04-03T14:45:16;8.50;61.50
24402;DHT22;12539;48.808;11.292;2023-04-03T14:47:44;8.50;60.40
24402;DHT22;12539;48.808;11.292;2023-04-03T14:50:12;8.50;61.30
24402;DHT22;12539;48.808;11.292;2023-04-03T14:52:39;8.50;61.80
24402;DHT22;12539;48.808;11.292;2023-04-03T14:55:06;8.50;64.00
24402;DHT22;12539;48.808;11.292;2023-04-03T14:57:31;8.50;61.90
24402;DHT22;12539;48.808;11.292;2023-04-03T14:59:57;8.50;61.70
24402;DHT22;12539;48.808;11.292;2023-04-03T15:02:27;8.60;61.40
24402;DHT22;12539;48.808;11.292;2023-04-03T15:04:54;8.80;62.80
24402;DHT22;12539;48.808;11.292;2023-04-03T15:07:19;8.90;60.50
24402;DHT22;12539;48.808;11.292;2023-04-03T15:09:45;8.90;59.70
24402;DHT22;12539;48.808;11.292;2023-04-03T15:12:11;8.90;60.20
24402;DHT22;12539;48.808;11.292;2023-04-03T15:14:36;8.80;62.40
24402;DHT22;12539;48.808;11.292;2023-04-03T15:17:02;8.70;64.60
24402;DHT22;12539;48.808;11.292;2023-04-03T15:19:29;8.60;63.30
24402;DHT22;12539;48.808;11.292;2023-04-03T15:21:55;8.60;63.40
24402;DHT22;12539;48.808;11.292;2023-04-03T15:24:21;8.70;64.20
24402;DHT22;12539;48.808;11.292;2023-04-03T15:26:50;8.70;66.90
24402;DHT22;12539;48.808;11.292;2023-04-03T15:29:15;8.90;64.60
24402;DHT22;12539;48.808;11.292;2023-04-03T15:31:41;8.90;63.30
24402;DHT22;12539;48.808;11.292;2023-04-03T15:34:06;8.90;66.70
24402;DHT22;12539;48.808;11.292;2023-04-03T15:36:32;9.00;64.20
24402;DHT22;12539;48.808;11.292;2023-04-03T15:38:57;8.90;63.90
24402;DHT22;12539;48.808;11.292;2023-04-03T15:41:23;8.80;63.90
24402;DHT22;12539;48.808;11.292;2023-04-03T15:43:48;8.70;63.20
24402;DHT22;12539;48.808;11.292;2023-04-03T15:46:14;8.70;66.60
24402;DHT22;12539;48.808;11.292;2023-04-03T15:48:40;8.80;67.00
24402;DHT22;12539;48.808;11.292;2023-04-03T15:51:05;8.90;68.60
24402;DHT22;12539;48.808;11.292;2023-04-03T15:53:31;9.00;68.00
24402;DHT22;12539;48.808;11.292;2023-04-03T15:55:57;9.00;65.00
24402;DHT22;12539;48.808;11.292;2023-04-03T15:58:22;9.00;64.90
24402;DHT22;12539;48.808;11.292;2023-04-03T16:00:48;8.90;63.80
24402;DHT22;12539;48.808;11.292;2023-04-03T16:03:18;8.80;63.20
24402;DHT22;12539;48.808;11.292;2023-04-03T16:05:45;8.80;63.50
24402;DHT22;12539;48.808;11.292;2023-04-03T16:08:10;8.70;61.80
24402;DHT22;12539;48.808;11.292;2023-04-03T16:10:37;8.60;59.10
24402;DHT22;12539;48.808;11.292;2023-04-03T16:13:11;8.50;61.10
24402;DHT22;12539;48.808;11.292;2023-04-03T16:15:37;8.40;63.50
24402;DHT22;12539;48.808;11.292;2023-04-03T16:18:03;8.40;63.60
24402;DHT22;12539;48.808;11.292;2023-04-03T16:20:28;8.30;62.20
24402;DHT22;12539;48.808;11.292;2023-04-03T16:22:55;8.20;61.00
24402;DHT22;12539;48.808;11.292;2023-04-03T16:25:21;8.20;60.60
24402;DHT22;12539;48.808;11.292;2023-04-03T16:27:46;8.10;62.00
24402;DHT22;12539;48.808;11.292;2023-04-03T16:30:14;8.10;62.90
24402;DHT22;12539;48.808;11.292;2023-04-03T16:32:39;8.20;64.00
24402;DHT22;12539;48.808;11.292;2023-04-03T16:35:05;8.20;64.80
24402;DHT22;12539;48.808;11.292;2023-04-03T16:37:31;8.20;62.20
24402;DHT22;12539;48.808;11.292;2023-04-03T16:39:56;8.20;62.80
24402;DHT22;12539;48.808;11.292;2023-04-03T16:42:23;8.10;63.10
24402;DHT22;12539;48.808;11.292;2023-04-03T16:44:49;8.00;64.90
24402;DHT22;12539;48.808;11.292;2023-04-03T16:47:15;7.90;63.40
24402;DHT22;12539;48.808;11.292;2023-04-03T16:49:44;7.80;63.80
24402;DHT22;12539;48.808;11.292;2023-04-03T16:52:09;7.70;65.30
24402;DHT22;12539;48.808;11.292;2023-04-03T16:54:35;7.70;64.70
24402;DHT22;12539;48.808;11.292;2023-04-03T16:57:01;7.60;64.00
24402;DHT22;12539;48.808;11.292;2023-04-03T16:59:26;7.60;62.50
24402;DHT22;12539;48.808;11.292;2023-04-03T17:01:52;7.50;63.80
24402;DHT22;12539;48.808;11.292;2023-04-03T17:04:17;7.40;65.20
24402;DHT22;12539;48.808;11.292;2023-04-03T17:06:43;7.40;64.10
24402;DHT22;12539;48.808;11.292;2023-04-03T17:09:08;7.30;64.30
24402;DHT22;12539;48.808;11.292;2023-04-03T17:11:34;7.30;64.20
24402;DHT22;12539;48.808;11.292;2023-04-03T17:14:00;7.20;63.60
24402;DHT22;12539;48.808;11.292;2023-04-03T17:16:26;7.20;64.80
24402;DHT22;12539;48.808;11.292;2023-04-03T17:18:52;7.10;65.40
24402;DHT22;12539;48.808;11.292;2023-04-03T17:21:18;7.10;66.70
24402;DHT22;12539;48.808;11.292;2023-04-03T17:23:44;7.00;65.50
24402;DHT22;12539;48.808;11.292;2023-04-03T17:26:13;7.00;66.10
24402;DHT22;12539;48.808;11.292;2023-04-03T17:28:39;6.90;67.10
24402;DHT22;12539;48.808;11.292;2023-04-03T17:31:05;6.80;67.00
24402;DHT22;12539;48.808;11.292;2023-04-03T17:33:31;6.70;68.60
24402;DHT22;12539;48.808;11.292;2023-04-03T17:35:57;6.70;69.00
24402;DHT22;12539;48.808;11.292;2023-04-03T17:38:23;6.60;68.90